Terminal Aerodrome Forecast
Issued by NWS

Home | Current Version | Previous Version | Text Only | Print | Product List | Glossary On
Versions: 1 2 3 4 5 6 7 8 9 10 11 12 13
000
FTUS46 KMTR 061700
TAFSNS
TAF
KSNS 061734Z 0618/0718 23011G15KT P6SM OVC023
     FM061900 27016G22KT P6SM BKN024
     FM062100 27017G24KT P6SM SCT025
     FM070400 26010G15KT P6SM OVC020=

USA.gov is the U.S. government's official web portal to all federal, state and local government web resources and services.